createdAt,value
2018-07-04T00:01:30.043Z,1010.54
2018-07-04T00:02:30.066Z,1010.6
2018-07-04T00:03:30.090Z,1010.56
2018-07-04T00:04:30.115Z,1010.59
2018-07-04T00:05:30.140Z,1010.59
2018-07-04T00:06:30.162Z,1010.6
2018-07-04T00:07:30.189Z,1010.59
2018-07-04T00:08:30.213Z,1010.63
2018-07-04T00:09:30.238Z,1010.58
2018-07-04T00:10:30.260Z,1010.66
2018-07-04T00:11:30.284Z,1010.58
2018-07-04T00:12:30.310Z,1010.61
2018-07-04T00:13:30.333Z,1010.63
2018-07-04T00:14:30.359Z,1010.6
2018-07-04T00:16:30.408Z,1010.61
2018-07-04T00:17:30.433Z,1010.56
2018-07-04T00:18:30.456Z,1010.58
2018-07-04T00:19:30.480Z,1010.6
2018-07-04T00:20:30.506Z,1010.59
2018-07-04T00:21:30.532Z,1010.58
2018-07-04T00:22:30.555Z,1010.61
2018-07-04T00:23:30.579Z,1010.59
2018-07-04T00:24:30.603Z,1010.59
2018-07-04T00:25:30.628Z,1010.59
2018-07-04T00:26:30.652Z,1010.6
2018-07-04T00:27:30.676Z,1010.6
2018-07-04T00:28:30.701Z,1010.57
2018-07-04T00:29:30.725Z,1010.6
2018-07-04T00:30:30.749Z,1010.57
2018-07-04T00:31:30.774Z,1010.56
2018-07-04T00:32:30.798Z,1010.56
2018-07-04T00:33:30.821Z,1010.54
2018-07-04T00:34:30.846Z,1010.53
2018-07-04T00:35:30.871Z,1010.54
2018-07-04T00:36:30.894Z,1010.56
2018-07-04T00:37:30.919Z,1010.57
2018-07-04T00:38:30.944Z,1010.62
2018-07-04T00:39:30.968Z,1010.6
2018-07-04T00:40:30.990Z,1010.62
2018-07-04T00:41:31.016Z,1010.61
2018-07-04T00:42:31.041Z,1010.61
2018-07-04T00:43:31.065Z,1010.62
2018-07-04T00:44:31.089Z,1010.62
2018-07-04T00:45:31.113Z,1010.64
2018-07-04T00:46:31.135Z,1010.65
2018-07-04T00:48:31.188Z,1010.67
2018-07-04T00:49:31.209Z,1010.62
2018-07-04T00:50:31.233Z,1010.62
2018-07-04T00:51:31.258Z,1010.65
2018-07-04T00:52:31.283Z,1010.66
2018-07-04T00:53:31.307Z,1010.69
2018-07-04T00:54:31.330Z,1010.65
2018-07-04T00:55:31.357Z,1010.65
2018-07-04T00:56:31.380Z,1010.68
2018-07-04T00:57:31.403Z,1010.65
2018-07-04T00:58:31.427Z,1010.62
2018-07-04T00:59:31.452Z,1010.61
2018-07-04T01:00:31.482Z,1010.59
2018-07-04T01:01:31.500Z,1010.59
2018-07-04T01:02:31.525Z,1010.6
2018-07-04T01:04:31.574Z,1010.59
2018-07-04T01:05:31.597Z,1010.54
2018-07-04T01:06:31.621Z,1010.55
2018-07-04T01:07:31.646Z,1010.53
2018-07-04T01:08:31.669Z,1010.53
2018-07-04T01:09:31.694Z,1010.54
2018-07-04T01:10:31.717Z,1010.57
2018-07-04T01:11:31.743Z,1010.54
2018-07-04T01:12:31.766Z,1010.55
2018-07-04T01:13:31.790Z,1010.54
2018-07-04T01:14:31.815Z,1010.49
2018-07-04T01:15:31.838Z,1010.51
2018-07-04T01:16:31.862Z,1010.51
2018-07-04T01:17:31.885Z,1010.44
2018-07-04T01:18:31.911Z,1010.5
2018-07-04T01:20:31.957Z,1010.48
2018-07-04T01:21:31.982Z,1010.49
2018-07-04T01:22:32.007Z,1010.5
2018-07-04T01:23:32.030Z,1010.47
2018-07-04T01:24:32.054Z,1010.46
2018-07-04T01:25:32.078Z,1010.47
2018-07-04T01:26:32.107Z,1010.45
2018-07-04T01:27:32.126Z,1010.46
2018-07-04T01:28:32.151Z,1010.45
2018-07-04T01:29:32.175Z,1010.44
2018-07-04T01:30:32.199Z,1010.43
2018-07-04T01:31:32.223Z,1010.44
2018-07-04T01:32:32.247Z,1010.45
2018-07-04T01:33:32.272Z,1010.47
2018-07-04T01:34:32.294Z,1010.46
2018-07-04T01:36:32.343Z,1010.46
2018-07-04T01:37:32.368Z,1010.47
2018-07-04T01:38:32.390Z,1010.41
2018-07-04T01:39:32.417Z,1010.43
2018-07-04T01:40:32.438Z,1010.42
2018-07-04T01:41:32.462Z,1010.39
2018-07-04T01:42:32.487Z,1010.41
2018-07-04T01:43:32.512Z,1010.41
2018-07-04T01:44:32.536Z,1010.4
2018-07-04T01:45:32.559Z,1010.38
2018-07-04T01:46:32.583Z,1010.38
2018-07-04T01:47:32.609Z,1010.38
2018-07-04T01:48:32.631Z,1010.37
2018-07-04T01:49:32.656Z,1010.39
2018-07-04T01:51:32.705Z,1010.39
2018-07-04T01:52:32.728Z,1010.38
2018-07-04T01:53:32.753Z,1010.4
2018-07-04T01:54:32.777Z,1010.42
2018-07-04T01:55:32.800Z,1010.41
2018-07-04T01:56:32.824Z,1010.35
2018-07-04T01:57:32.849Z,1010.37
2018-07-04T01:58:32.872Z,1010.37
2018-07-04T01:59:32.896Z,1010.34
2018-07-04T02:00:32.922Z,1010.35
2018-07-04T02:01:32.979Z,1010.34
2018-07-04T02:02:32.969Z,1010.34
2018-07-04T02:03:32.991Z,1010.35
2018-07-04T02:04:33.116Z,1010.33
2018-07-04T02:05:33.044Z,1010.33
2018-07-04T02:06:33.063Z,1010.29
2018-07-04T02:07:33.086Z,1010.28
2018-07-04T02:08:33.115Z,1010.28
2018-07-04T02:09:33.136Z,1010.26
2018-07-04T02:10:33.158Z,1010.22
2018-07-04T02:11:33.182Z,1010.27
2018-07-04T02:12:33.207Z,1010.25
2018-07-04T02:13:33.231Z,1010.25
2018-07-04T02:14:33.257Z,1010.29
2018-07-04T02:15:33.279Z,1010.27
2018-07-04T02:16:33.306Z,1010.29
2018-07-04T02:17:33.326Z,1010.26
2018-07-04T02:18:33.350Z,1010.25
2018-07-04T02:19:33.373Z,1010.29
2018-07-04T02:20:33.399Z,1010.25
2018-07-04T02:21:33.421Z,1010.25
2018-07-04T02:23:33.470Z,1010.26
2018-07-04T02:24:33.500Z,1010.31
2018-07-04T02:25:33.520Z,1010.25
2018-07-04T02:26:33.541Z,1010.25
2018-07-04T02:27:33.566Z,1010.31
2018-07-04T02:28:33.593Z,1010.3
2018-07-04T02:29:33.613Z,1010.32
2018-07-04T02:30:33.637Z,1010.29
2018-07-04T02:31:33.661Z,1010.33
2018-07-04T02:32:33.684Z,1010.35
2018-07-04T02:33:33.709Z,1010.34
2018-07-04T02:34:33.732Z,1010.38
2018-07-04T02:35:33.757Z,1010.32
2018-07-04T02:36:33.783Z,1010.36
2018-07-04T02:37:33.806Z,1010.34
2018-07-04T02:39:33.852Z,1010.38
2018-07-04T02:40:33.874Z,1010.39
2018-07-04T02:41:33.899Z,1010.39
2018-07-04T02:42:33.923Z,1010.35
2018-07-04T02:43:33.951Z,1010.34
2018-07-04T02:44:33.968Z,1010.38
2018-07-04T02:45:33.997Z,1010.34
2018-07-04T02:46:34.018Z,1010.34
2018-07-04T02:47:34.041Z,1010.32
2018-07-04T02:48:34.065Z,1010.33
2018-07-04T02:49:34.088Z,1010.32
2018-07-04T02:50:34.112Z,1010.32
2018-07-04T02:51:34.136Z,1010.31
2018-07-04T02:52:34.160Z,1010.28
2018-07-04T02:53:34.186Z,1010.27
2018-07-04T02:55:34.233Z,1010.26
2018-07-04T02:56:34.254Z,1010.28
2018-07-04T02:57:34.285Z,1010.25
2018-07-04T02:58:34.304Z,1010.29
2018-07-04T02:59:34.325Z,1010.3
2018-07-04T03:00:34.349Z,1010.29
2018-07-04T03:01:34.373Z,1010.28
2018-07-04T03:02:34.396Z,1010.28
2018-07-04T03:03:34.468Z,1010.26
2018-07-04T03:04:34.445Z,1010.27
2018-07-04T03:05:34.467Z,1010.28
2018-07-04T03:06:34.490Z,1010.29
2018-07-04T03:07:34.514Z,1010.29
2018-07-04T03:08:34.539Z,1010.3
2018-07-04T03:09:34.561Z,1010.34
2018-07-04T03:11:34.610Z,1010.39
2018-07-04T03:12:34.641Z,1010.43
2018-07-04T03:13:34.656Z,1010.39
2018-07-04T03:14:34.679Z,1010.42
2018-07-04T03:15:34.702Z,1010.39
2018-07-04T03:16:34.729Z,1010.35
2018-07-04T03:17:34.754Z,1010.38
2018-07-04T03:18:34.774Z,1010.39
2018-07-04T03:19:34.797Z,1010.36
2018-07-04T03:20:34.820Z,1010.37
2018-07-04T03:21:34.843Z,1010.34
2018-07-04T03:22:34.874Z,1010.35
2018-07-04T03:23:34.916Z,1010.34
2018-07-04T03:24:34.917Z,1010.36
2018-07-04T03:26:34.964Z,1010.34
2018-07-04T03:27:34.986Z,1010.3
2018-07-04T03:28:35.011Z,1010.37
2018-07-04T03:29:35.034Z,1010.34
2018-07-04T03:30:35.115Z,1010.35
2018-07-04T03:31:35.084Z,1010.34
2018-07-04T03:32:35.103Z,1010.34
2018-07-04T03:33:35.127Z,1010.35
2018-07-04T03:34:35.154Z,1010.3
2018-07-04T03:35:35.182Z,1010.37
2018-07-04T03:36:35.206Z,1010.35
2018-07-04T03:37:35.223Z,1010.33
2018-07-04T03:38:35.246Z,1010.31
2018-07-04T03:39:35.269Z,1010.35
2018-07-04T03:40:35.293Z,1010.34
2018-07-04T03:41:35.331Z,1010.33
2018-07-04T03:42:35.340Z,1010.33
2018-07-04T03:43:35.363Z,1010.32
2018-07-04T03:44:35.387Z,1010.28
2018-07-04T03:45:35.411Z,1010.29
2018-07-04T03:46:35.435Z,1010.29
2018-07-04T03:47:35.459Z,1010.29
2018-07-04T03:48:35.481Z,1010.26
2018-07-04T03:49:35.505Z,1010.28
2018-07-04T03:50:35.527Z,1010.23
2018-07-04T03:51:35.554Z,1010.24
2018-07-04T03:52:35.579Z,1010.24
2018-07-04T03:53:35.599Z,1010.2
2018-07-04T03:54:35.623Z,1010.24
2018-07-04T03:55:35.646Z,1010.2
2018-07-04T03:56:35.670Z,1010.17
2018-07-04T03:58:35.717Z,1010.18
2018-07-04T03:59:35.740Z,1010.18
2018-07-04T04:00:35.762Z,1010.14
2018-07-04T04:01:35.789Z,1010.13
2018-07-04T04:02:35.813Z,1010.17
2018-07-04T04:03:35.836Z,1010.16
2018-07-04T04:04:35.857Z,1010.15
2018-07-04T04:05:35.883Z,1010.18
2018-07-04T04:06:35.906Z,1010.16
2018-07-04T04:07:35.929Z,1010.2
2018-07-04T04:08:35.951Z,1010.18
2018-07-04T04:09:35.977Z,1010.19
2018-07-04T04:10:36.001Z,1010.23
2018-07-04T04:11:36.023Z,1010.25
2018-07-04T04:12:36.048Z,1010.23
2018-07-04T04:14:36.097Z,1010.39
2018-07-04T04:15:36.117Z,1010.73
2018-07-04T04:16:36.141Z,1010.82
2018-07-04T04:17:36.167Z,1010.85
2018-07-04T04:18:36.189Z,1010.91
2018-07-04T04:19:36.215Z,1010.9
2018-07-04T04:20:36.240Z,1010.91
2018-07-04T04:21:36.264Z,1010.93
2018-07-04T04:22:36.290Z,1010.95
2018-07-04T04:23:36.316Z,1010.99
2018-07-04T04:24:36.341Z,1010.97
2018-07-04T04:25:36.368Z,1010.98
2018-07-04T04:26:36.393Z,1010.99
2018-07-04T04:27:36.420Z,1011
2018-07-04T04:28:36.447Z,1011.02
2018-07-04T04:30:36.501Z,1011.07
2018-07-04T04:31:36.529Z,1011.08
2018-07-04T04:32:36.559Z,1011.09
2018-07-04T04:33:36.589Z,1011.1
2018-07-04T04:34:36.613Z,1011.07
2018-07-04T04:35:36.644Z,1011
2018-07-04T04:36:36.671Z,1011.02
2018-07-04T04:37:36.700Z,1011.01
2018-07-04T04:38:36.734Z,1011
2018-07-04T04:39:36.760Z,1010.96
2018-07-04T04:40:36.790Z,1010.95
2018-07-04T04:41:36.820Z,1010.97
2018-07-04T04:42:36.852Z,1010.96
2018-07-04T04:43:36.882Z,1010.95
2018-07-04T04:44:36.915Z,1010.91
2018-07-04T04:46:36.975Z,1010.85
2018-07-04T04:47:37.006Z,1010.83
2018-07-04T04:48:37.037Z,1010.84
2018-07-04T04:49:37.076Z,1010.82
2018-07-04T04:50:37.102Z,1010.79
2018-07-04T04:51:37.139Z,1010.82
2018-07-04T04:52:37.167Z,1010.83
2018-07-04T04:53:37.199Z,1010.84
2018-07-04T04:54:37.232Z,1010.87
2018-07-04T04:55:37.264Z,1010.91
2018-07-04T04:56:37.297Z,1010.92
2018-07-04T04:57:37.331Z,1010.91
2018-07-04T04:58:37.369Z,1010.91
2018-07-04T04:59:37.402Z,1010.89
2018-07-04T05:01:37.469Z,1010.9
2018-07-04T05:02:37.500Z,1010.92
2018-07-04T05:03:37.533Z,1010.96
2018-07-04T05:04:37.568Z,1010.95
2018-07-04T05:05:37.602Z,1011
2018-07-04T05:06:37.634Z,1010.98
2018-07-04T05:07:37.675Z,1011
2018-07-04T05:08:37.705Z,1011.06
2018-07-04T05:09:37.739Z,1011.09
2018-07-04T05:10:37.776Z,1011.17
2018-07-04T05:11:37.807Z,1011.21
2018-07-04T05:12:37.843Z,1011.21
2018-07-04T05:13:37.879Z,1011.3
2018-07-04T05:14:37.913Z,1011.36
2018-07-04T05:15:37.961Z,1011.38
2018-07-04T05:16:37.985Z,1011.4
2018-07-04T05:17:38.019Z,1011.38
2018-07-04T05:18:38.105Z,1011.35
2018-07-04T05:19:38.094Z,1011.38
2018-07-04T05:20:38.125Z,1011.35
2018-07-04T05:21:38.160Z,1011.32
2018-07-04T05:22:38.245Z,1011.37
2018-07-04T05:23:38.234Z,1011.37
2018-07-04T05:24:38.269Z,1011.4
2018-07-04T05:25:38.311Z,1011.37
2018-07-04T05:26:38.346Z,1011.42
2018-07-04T05:27:38.383Z,1011.4
2018-07-04T05:28:38.415Z,1011.43
2018-07-04T05:29:38.451Z,1011.47
2018-07-04T05:30:38.487Z,1011.48
2018-07-04T05:31:38.523Z,1011.49
2018-07-04T05:33:38.597Z,1011.46
2018-07-04T05:34:38.737Z,1011.46
2018-07-04T05:35:38.671Z,1011.46
2018-07-04T05:36:38.707Z,1011.45
2018-07-04T05:37:38.746Z,1011.46
2018-07-04T05:38:38.783Z,1011.45
2018-07-04T05:39:38.819Z,1011.46
2018-07-04T05:40:38.856Z,1011.43
2018-07-04T05:41:38.895Z,1011.43
2018-07-04T05:42:38.931Z,1011.45
2018-07-04T05:43:38.971Z,1011.46
2018-07-04T05:44:39.006Z,1011.45
2018-07-04T05:45:39.046Z,1011.47
2018-07-04T05:46:39.081Z,1011.43
2018-07-04T05:47:39.169Z,1011.44
2018-07-04T05:49:39.194Z,1011.46
2018-07-04T05:50:39.232Z,1011.47
2018-07-04T05:51:39.271Z,1011.51
2018-07-04T05:52:39.312Z,1011.53
2018-07-04T05:53:39.349Z,1011.52
2018-07-04T05:54:39.385Z,1011.52
2018-07-04T05:55:39.424Z,1011.49
2018-07-04T05:56:39.462Z,1011.53
2018-07-04T05:57:39.500Z,1011.52
2018-07-04T05:58:39.537Z,1011.52
2018-07-04T05:59:39.576Z,1011.51
2018-07-04T06:00:39.617Z,1011.48
2018-07-04T06:01:39.654Z,1011.49
2018-07-04T06:02:39.728Z,1011.49
2018-07-04T06:03:39.731Z,1011.5
2018-07-04T06:05:39.810Z,1011.5
2018-07-04T06:06:39.849Z,1011.49
2018-07-04T06:07:39.888Z,1011.46
2018-07-04T06:08:39.929Z,1011.46
2018-07-04T06:09:39.965Z,1011.43
2018-07-04T06:10:40.009Z,1011.31
2018-07-04T06:11:40.045Z,1011.25
2018-07-04T06:12:40.084Z,1011.23
2018-07-04T06:13:40.122Z,1011.19
2018-07-04T06:14:40.162Z,1011.16
2018-07-04T06:15:40.200Z,1011.19
2018-07-04T06:16:40.240Z,1011.19
2018-07-04T06:17:40.303Z,1011.14
2018-07-04T06:18:40.325Z,1011.13
2018-07-04T06:19:40.365Z,1011.13
2018-07-04T06:21:40.439Z,1011.1
2018-07-04T06:22:40.479Z,1011.1
2018-07-04T06:23:40.518Z,1011.08
2018-07-04T06:24:40.582Z,1011.11
2018-07-04T06:25:40.598Z,1011.15
2018-07-04T06:26:40.637Z,1011.17
2018-07-04T06:27:40.676Z,1011.22
2018-07-04T06:28:40.717Z,1011.19
2018-07-04T06:29:40.758Z,1011.27
2018-07-04T06:30:40.797Z,1011.29
2018-07-04T06:31:40.838Z,1011.29
2018-07-04T06:32:40.881Z,1011.31
2018-07-04T06:33:40.918Z,1011.31
2018-07-04T06:34:40.959Z,1011.35
2018-07-04T06:36:41.042Z,1011.38
2018-07-04T06:37:41.080Z,1011.35
2018-07-04T06:38:41.120Z,1011.41
2018-07-04T06:39:41.202Z,1011.42
2018-07-04T06:40:41.204Z,1011.42
2018-07-04T06:41:41.241Z,1011.4
2018-07-04T06:42:41.281Z,1011.41
2018-07-04T06:43:41.323Z,1011.42
2018-07-04T06:44:41.362Z,1011.45
2018-07-04T06:45:41.403Z,1011.47
2018-07-04T06:46:41.448Z,1011.48
2018-07-04T06:47:41.484Z,1011.48
2018-07-04T06:48:41.524Z,1011.51
2018-07-04T06:49:41.566Z,1011.5
2018-07-04T06:50:41.605Z,1011.52
2018-07-04T06:51:41.646Z,1011.53
2018-07-04T06:52:41.692Z,1011.52
2018-07-04T06:53:41.727Z,1011.49
2018-07-04T06:54:41.768Z,1011.5
2018-07-04T06:55:41.808Z,1011.5
2018-07-04T06:56:41.848Z,1011.51
2018-07-04T06:57:41.890Z,1011.47
2018-07-04T06:58:41.947Z,1011.48
2018-07-04T06:59:41.971Z,1011.49
2018-07-04T07:00:42.013Z,1011.46
2018-07-04T07:01:42.054Z,1011.49
2018-07-04T07:02:42.096Z,1011.55
2018-07-04T07:03:42.139Z,1011.69
2018-07-04T07:04:42.177Z,1011.84
2018-07-04T07:05:42.218Z,1011.89
2018-07-04T07:06:42.358Z,1011.89
2018-07-04T07:08:42.452Z,1011.86
2018-07-04T07:09:42.381Z,1011.82
2018-07-04T07:10:42.422Z,1011.85
2018-07-04T07:11:42.467Z,1011.88
2018-07-04T07:12:42.605Z,1011.92
2018-07-04T07:13:42.546Z,1011.94
2018-07-04T07:14:42.586Z,1011.98
2018-07-04T07:15:42.627Z,1012.02
2018-07-04T07:16:42.667Z,1012.06
2018-07-04T07:17:42.709Z,1012.09
2018-07-04T07:18:42.752Z,1012.15
2018-07-04T07:19:42.790Z,1012.13
2018-07-04T07:20:42.832Z,1012.13
2018-07-04T07:21:42.875Z,1012.2
2018-07-04T07:22:42.913Z,1012.19
2018-07-04T07:24:42.999Z,1012.26
2018-07-04T07:25:43.035Z,1012.27
2018-07-04T07:26:43.081Z,1012.29
2018-07-04T07:27:43.118Z,1012.31
2018-07-04T07:28:43.157Z,1012.37
2018-07-04T07:29:43.206Z,1012.44
2018-07-04T07:30:43.241Z,1012.52
2018-07-04T07:31:43.281Z,1012.51
2018-07-04T07:32:43.322Z,1012.6
2018-07-04T07:33:43.362Z,1012.56
2018-07-04T07:34:43.403Z,1012.59
2018-07-04T07:35:43.444Z,1012.69
2018-07-04T07:36:43.484Z,1012.72
2018-07-04T07:37:43.526Z,1012.78
2018-07-04T07:38:43.567Z,1012.81
2018-07-04T07:40:43.647Z,1012.75
2018-07-04T07:41:43.689Z,1012.83
2018-07-04T07:42:43.729Z,1012.88
2018-07-04T07:43:43.768Z,1012.85
2018-07-04T07:44:43.810Z,1012.89
2018-07-04T07:45:43.852Z,1012.9
2018-07-04T07:46:43.891Z,1012.83
2018-07-04T07:47:43.932Z,1012.89
2018-07-04T07:48:44.023Z,1012.8
2018-07-04T07:49:44.012Z,1012.76
2018-07-04T07:50:44.054Z,1012.7
2018-07-04T07:51:44.095Z,1012.73
2018-07-04T07:52:44.137Z,1012.65
2018-07-04T07:53:44.177Z,1012.69
2018-07-04T07:54:44.216Z,1012.61
2018-07-04T07:56:44.299Z,1012.46
2018-07-04T07:57:44.341Z,1012.38
2018-07-04T07:58:44.380Z,1012.3
2018-07-04T07:59:44.420Z,1012.26
2018-07-04T08:00:44.462Z,1012.16
2018-07-04T08:01:44.564Z,1012.12
2018-07-04T08:02:44.542Z,1012.08
2018-07-04T08:03:44.584Z,1012.07
2018-07-04T08:04:44.624Z,1011.96
2018-07-04T08:05:44.663Z,1011.88
2018-07-04T08:06:44.704Z,1011.85
2018-07-04T08:07:44.746Z,1011.83
2018-07-04T08:08:44.785Z,1011.83
2018-07-04T08:09:44.829Z,1011.8
2018-07-04T08:11:44.909Z,1011.63
2018-07-04T08:12:45.011Z,1011.66
2018-07-04T08:13:44.989Z,1011.63
2018-07-04T08:14:45.029Z,1011.62
2018-07-04T08:15:45.070Z,1011.61
2018-07-04T08:16:45.109Z,1011.56
2018-07-04T08:17:45.150Z,1011.55
2018-07-04T08:18:45.198Z,1011.55
2018-07-04T08:19:45.227Z,1011.5
2018-07-04T08:20:45.319Z,1011.46
2018-07-04T08:21:45.309Z,1011.42
2018-07-04T08:22:45.351Z,1011.38
2018-07-04T08:23:45.389Z,1011.36
2018-07-04T08:24:45.428Z,1011.29
2018-07-04T08:25:45.468Z,1011.3
2018-07-04T08:26:45.509Z,1011.36
2018-07-04T08:27:45.547Z,1011.4
2018-07-04T08:28:45.586Z,1011.37
2018-07-04T08:29:45.626Z,1011.32
2018-07-04T08:30:45.665Z,1011.26
2018-07-04T08:31:45.705Z,1011.2
2018-07-04T08:32:45.748Z,1011.15
2018-07-04T08:33:45.784Z,1011.15
2018-07-04T08:34:45.822Z,1011.15
2018-07-04T08:35:45.868Z,1011.14
2018-07-04T08:36:45.901Z,1011.18
2018-07-04T08:37:45.943Z,1011.15
2018-07-04T08:38:45.979Z,1011.13
2018-07-04T08:39:46.021Z,1011.15
2018-07-04T08:40:46.058Z,1011.08
2018-07-04T08:41:46.096Z,1011.05
2018-07-04T08:43:46.175Z,1010.96
2018-07-04T08:44:46.272Z,1010.94
2018-07-04T08:45:46.253Z,1010.98
2018-07-04T08:46:46.296Z,1011.1
2018-07-04T08:47:46.332Z,1011.17
2018-07-04T08:48:46.371Z,1011.19
2018-07-04T08:49:46.409Z,1011.12
2018-07-04T08:50:46.480Z,1011.19
2018-07-04T08:51:46.488Z,1011.25
2018-07-04T08:52:46.537Z,1011.08
2018-07-04T08:53:46.564Z,1010.91
2018-07-04T08:54:46.602Z,1010.82
2018-07-04T08:55:46.642Z,1010.82
2018-07-04T08:56:46.680Z,1010.82
2018-07-04T08:57:46.720Z,1010.84
2018-07-04T08:59:46.896Z,1010.79
2018-07-04T09:00:46.836Z,1010.77
2018-07-04T09:01:46.873Z,1010.71
2018-07-04T09:02:46.913Z,1010.73
2018-07-04T09:03:46.953Z,1010.68
2018-07-04T09:04:46.992Z,1010.7
2018-07-04T09:05:47.028Z,1010.66
2018-07-04T09:06:47.069Z,1010.63
2018-07-04T09:07:47.108Z,1010.63
2018-07-04T09:08:47.144Z,1010.56
2018-07-04T09:09:47.183Z,1010.59
2018-07-04T09:10:47.222Z,1010.55
2018-07-04T09:11:47.271Z,1010.54
2018-07-04T09:12:47.296Z,1010.46
2018-07-04T09:13:47.333Z,1010.49
2018-07-04T09:15:47.410Z,1010.49
2018-07-04T09:16:47.449Z,1010.48
2018-07-04T09:17:47.487Z,1010.51
2018-07-04T09:18:47.528Z,1010.47
2018-07-04T09:19:47.562Z,1010.47
2018-07-04T09:20:47.604Z,1010.51
2018-07-04T09:21:47.639Z,1010.5
2018-07-04T09:22:47.677Z,1010.41
2018-07-04T09:23:47.714Z,1010.4
2018-07-04T09:24:47.752Z,1010.38
2018-07-04T09:25:47.791Z,1010.31
2018-07-04T09:26:47.827Z,1010.44
2018-07-04T09:27:47.865Z,1010.4
2018-07-04T09:28:47.907Z,1010.4
2018-07-04T09:29:47.940Z,1010.39
2018-07-04T09:31:48.016Z,1010.36
2018-07-04T09:32:48.053Z,1010.36
2018-07-04T09:33:48.090Z,1010.34
2018-07-04T09:34:48.127Z,1010.35
2018-07-04T09:35:48.164Z,1010.29
2018-07-04T09:36:48.205Z,1010.32
2018-07-04T09:37:48.238Z,1010.33
2018-07-04T09:38:48.274Z,1010.28
2018-07-04T09:39:48.316Z,1010.32
2018-07-04T09:40:48.349Z,1010.36
2018-07-04T09:41:48.389Z,1010.35
2018-07-04T09:42:48.424Z,1010.33
2018-07-04T09:43:48.533Z,1010.25
2018-07-04T09:44:48.497Z,1010.28
2018-07-04T09:46:48.573Z,1010.29
2018-07-04T09:47:48.700Z,1010.27
2018-07-04T09:48:48.644Z,1010.25
2018-07-04T09:49:48.681Z,1010.27
2018-07-04T09:50:48.817Z,1010.24
2018-07-04T09:51:48.751Z,1010.24
2018-07-04T09:52:48.789Z,1010.26
2018-07-04T09:53:48.826Z,1010.32
2018-07-04T09:54:48.862Z,1010.27
2018-07-04T09:55:48.902Z,1010.25
2018-07-04T09:56:48.935Z,1010.24
2018-07-04T09:57:48.972Z,1010.24
2018-07-04T09:58:49.080Z,1010.23
2018-07-04T09:59:49.055Z,1010.2
2018-07-04T10:00:49.081Z,1010.18
2018-07-04T10:01:49.117Z,1010.18
2018-07-04T10:02:49.152Z,1010.21
2018-07-04T10:03:49.188Z,1010.14
2018-07-04T10:04:49.223Z,1010.14
2018-07-04T10:05:49.363Z,1010.09
2018-07-04T10:06:49.295Z,1010.13
2018-07-04T10:07:49.334Z,1010.08
2018-07-04T10:08:49.368Z,1010.07
2018-07-04T10:09:49.404Z,1010.08
2018-07-04T10:10:49.440Z,1010.07
2018-07-04T10:11:49.476Z,1010.06
2018-07-04T10:12:49.514Z,1010.05
2018-07-04T10:13:49.552Z,1010.11
2018-07-04T10:14:49.581Z,1010.07
2018-07-04T10:15:49.619Z,1010.07
2018-07-04T10:16:49.659Z,1010.09
2018-07-04T10:18:49.725Z,1010.02
2018-07-04T10:19:49.762Z,1010
2018-07-04T10:20:49.796Z,1010.03
2018-07-04T10:21:49.832Z,1010.02
2018-07-04T10:22:49.884Z,1009.98
2018-07-04T10:23:49.904Z,1009.94
2018-07-04T10:24:49.938Z,1009.96
2018-07-04T10:25:49.977Z,1009.95
2018-07-04T10:26:50.010Z,1009.97
2018-07-04T10:27:50.045Z,1009.97
2018-07-04T10:28:50.080Z,1009.97
2018-07-04T10:29:50.115Z,1009.97
2018-07-04T10:30:50.150Z,1009.93
2018-07-04T10:31:50.184Z,1009.94
2018-07-04T10:32:50.226Z,1009.93
2018-07-04T10:34:50.291Z,1009.91
2018-07-04T10:35:50.325Z,1009.91
2018-07-04T10:36:50.360Z,1009.9
2018-07-04T10:37:50.395Z,1009.87
2018-07-04T10:38:50.433Z,1009.88
2018-07-04T10:39:50.466Z,1009.85
2018-07-04T10:40:50.512Z,1009.89
2018-07-04T10:41:50.537Z,1009.85
2018-07-04T10:42:50.573Z,1009.87
2018-07-04T10:43:50.605Z,1009.82
2018-07-04T10:44:50.702Z,1009.81
2018-07-04T10:45:50.676Z,1009.81
2018-07-04T10:46:50.710Z,1009.83
2018-07-04T10:47:50.744Z,1009.77
2018-07-04T10:48:50.780Z,1009.77
2018-07-04T10:50:50.857Z,1009.77
2018-07-04T10:51:50.883Z,1009.75
2018-07-04T10:52:50.918Z,1009.76
2018-07-04T10:53:50.952Z,1009.74
2018-07-04T10:54:50.986Z,1009.74
2018-07-04T10:55:51.038Z,1009.74
2018-07-04T10:56:51.055Z,1009.74
2018-07-04T10:57:51.096Z,1009.74
2018-07-04T10:58:51.125Z,1009.71
2018-07-04T10:59:51.158Z,1009.71
2018-07-04T11:00:51.192Z,1009.77
2018-07-04T11:01:51.227Z,1009.74
2018-07-04T11:02:51.261Z,1009.73
2018-07-04T11:03:51.295Z,1009.7
2018-07-04T11:04:51.328Z,1009.71
2018-07-04T11:06:51.397Z,1009.68
2018-07-04T11:07:51.438Z,1009.66
2018-07-04T11:08:51.463Z,1009.62
2018-07-04T11:09:51.497Z,1009.68
2018-07-04T11:10:51.531Z,1009.64
2018-07-04T11:11:51.564Z,1009.58
2018-07-04T11:12:51.597Z,1009.59
2018-07-04T11:13:51.635Z,1009.57
2018-07-04T11:14:51.665Z,1009.58
2018-07-04T11:15:51.699Z,1009.52
2018-07-04T11:16:51.745Z,1009.51
2018-07-04T11:17:51.766Z,1009.52
2018-07-04T11:18:51.800Z,1009.49
2018-07-04T11:19:51.834Z,1009.47
2018-07-04T11:21:51.901Z,1009.43
2018-07-04T11:22:51.934Z,1009.49
2018-07-04T11:23:51.967Z,1009.5
2018-07-04T11:24:52.000Z,1009.49
2018-07-04T11:25:52.043Z,1009.44
2018-07-04T11:26:52.067Z,1009.5
2018-07-04T11:27:52.100Z,1009.45
2018-07-04T11:28:52.135Z,1009.44
2018-07-04T11:29:52.166Z,1009.45
2018-07-04T11:30:52.200Z,1009.46
2018-07-04T11:31:52.236Z,1009.43
2018-07-04T11:32:52.267Z,1009.42
2018-07-04T11:33:52.300Z,1009.47
2018-07-04T11:34:52.332Z,1009.45
2018-07-04T11:35:52.366Z,1009.42
2018-07-04T11:36:52.398Z,1009.4
2018-07-04T11:37:52.431Z,1009.45
2018-07-04T11:38:52.465Z,1009.42
2018-07-04T11:39:52.498Z,1009.4
2018-07-04T11:40:52.530Z,1009.4
2018-07-04T11:41:52.564Z,1009.4
2018-07-04T11:42:52.597Z,1009.37
2018-07-04T11:43:52.631Z,1009.37
2018-07-04T11:44:52.663Z,1009.36
2018-07-04T11:45:52.695Z,1009.34
2018-07-04T11:46:52.729Z,1009.34
2018-07-04T11:47:52.763Z,1009.34
2018-07-04T11:48:52.795Z,1009.34
2018-07-04T11:49:52.927Z,1009.34
2018-07-04T11:50:52.862Z,1009.35
2018-07-04T11:51:52.896Z,1009.33
2018-07-04T11:53:52.960Z,1009.28
2018-07-04T11:54:52.995Z,1009.29
2018-07-04T11:55:53.024Z,1009.23
2018-07-04T11:56:53.101Z,1009.23
2018-07-04T11:57:53.092Z,1009.25
2018-07-04T11:58:53.125Z,1009.16
2018-07-04T11:59:53.157Z,1009.19
2018-07-04T12:00:53.190Z,1009.21
2018-07-04T12:01:53.292Z,1009.25
2018-07-04T12:02:53.254Z,1009.28
2018-07-04T12:03:53.288Z,1009.25
2018-07-04T12:04:53.321Z,1009.26
2018-07-04T12:05:53.354Z,1009.26
2018-07-04T12:06:53.385Z,1009.22
2018-07-04T12:07:53.418Z,1009.24
2018-07-04T12:09:53.485Z,1009.19
2018-07-04T12:10:53.552Z,1009.24
2018-07-04T12:11:53.547Z,1009.18
2018-07-04T12:12:53.582Z,1009.19
2018-07-04T12:13:53.613Z,1009.13
2018-07-04T12:14:53.645Z,1009.11
2018-07-04T12:15:53.679Z,1009.12
2018-07-04T12:16:53.712Z,1009.08
2018-07-04T12:17:53.750Z,1009.12
2018-07-04T12:18:53.776Z,1009.11
2018-07-04T12:19:53.808Z,1009.11
2018-07-04T12:20:53.862Z,1009.12
2018-07-04T12:21:53.873Z,1009.13
2018-07-04T12:22:53.906Z,1009.17
2018-07-04T12:23:53.940Z,1009.14
2018-07-04T12:25:54.004Z,1009.12
2018-07-04T12:26:54.071Z,1009.08
2018-07-04T12:27:54.068Z,1009.06
2018-07-04T12:28:54.102Z,1009.06
2018-07-04T12:29:54.134Z,1009.08
2018-07-04T12:30:54.165Z,1009.13
2018-07-04T12:31:54.210Z,1009.14
2018-07-04T12:32:54.230Z,1009.13
2018-07-04T12:33:54.262Z,1009.12
2018-07-04T12:34:54.294Z,1009.13
2018-07-04T12:35:54.326Z,1009.09
2018-07-04T12:36:54.359Z,1009.1
2018-07-04T12:37:54.391Z,1009.12
2018-07-04T12:38:54.424Z,1009.09
2018-07-04T12:39:54.456Z,1009.1
2018-07-04T12:41:54.520Z,1009.07
2018-07-04T12:42:54.553Z,1009.08
2018-07-04T12:43:54.584Z,1009.02
2018-07-04T12:44:54.617Z,1009.01
2018-07-04T12:45:54.650Z,1008.96
2018-07-04T12:46:54.693Z,1008.99
2018-07-04T12:47:54.713Z,1009.02
2018-07-04T12:48:54.746Z,1009.07
2018-07-04T12:49:54.778Z,1009.07